• Join FlightAware (Why Join?)
  • Login
  • US Flag 
05:11AM EDT


 

Airport Tracker/Info


-or-


 

Live Flight TrackerFlight Track Log ✈ N612CT ✈ 14-Nov-2013 ✈ KPBI - KAPF

Flight Track Log - Related Links

Times and Time Zones

All times are in EST time to prevent confusion due to time zone crossing. See the N612CT flight status page for this flight to view local times or setup timezone preferences in your user account.

Time Position Orientation Groundspeed Altitude Reporting Facility
EST Latitude Longitude Course Direction KTS MPH feet Rate Location/Type
10:58PM 26.5858 -80.4095 263° West  Level Estimated
10:59PM 26.5898 -80.4647 275° West  Level FlightAware Approximate
11:00PM 26.5937 -80.5199 275° West  Level FlightAware Approximate
11:01PM 26.5758 -80.5715 242° Southwest  Level Estimated
11:01PM 26.5939 -80.3600 260° West 170 196 6,000  Level Miami Center
11:02PM 26.5670 -80.6260 260° West  Level FlightAware Approximate
11:02PM 26.6008 -80.4183 278° West 176 203 6,000  Level Miami Center
11:03PM 26.5581 -80.6805 260° West  Level FlightAware Approximate
11:03PM 26.6039 -80.4672 274° West 176 203 6,000  Level Miami Center
11:04PM 26.5492 -80.7349 260° West  Level FlightAware Approximate
11:04PM 26.6086 -80.5256 275° West 176 203 6,000  Level Miami Center
11:05PM 26.5403 -80.7893 260° West  Level FlightAware Approximate
11:05PM 26.6117 -80.5719 274° West 176 203 6,000  Level Miami Center
11:06PM 26.6164 -80.6303 275° West 176 203 6,000  Level Miami Center
11:07PM 26.6214 -80.6817 276° West 176 203 6,000  Level Miami Center
11:08PM 26.6242 -80.7375 273° West 176 203 6,000  Level Miami Center
11:09PM 26.6231 -80.7792 268° West 165 190 6,000  Level Miami Center
11:10PM 26.6008 -80.8272 243° Southwest 165 190 6,000  Level Miami Center
11:11PM 26.5767 -80.8750 241° Southwest 171 197 6,000  Level Miami Center
11:12PM 26.5564 -80.9233 245° Southwest 171 197 6,000  Level Miami Center
11:13PM 26.5342 -80.9689 241° Southwest 176 203 6,000  Level Miami Center
11:14PM 26.5142 -81.0100 241° Southwest 176 203 6,000  Level Miami Center
11:15PM 26.4919 -81.0578 243° Southwest 181 208 6,000  Level Miami Center
11:16PM 26.4675 -81.1081 242° Southwest 176 203 6,000  Level Miami Center
11:17PM 26.4475 -81.1492 241° Southwest 176 203 6,000  Level Miami Center
11:18PM 26.4231 -81.2017 243° Southwest 176 203 6,000 -120 Level Miami Center
11:19PM 26.4031 -81.2472 244° Southwest 176 203 5,800 -300 Descending Miami Center
11:20PM 26.3783 -81.2972 241° Southwest 176 203 5,500 -300 Descending Miami Center
11:21PM 26.3581 -81.3453 245° Southwest 176 203 5,200 -300 Descending Miami Center
11:23PM 26.3381 -81.4030 249° West  Level FlightAware Approximate
11:30PM 26.1852 -81.6801 237° Southwest  Level FlightAware Approximate
11:31PM 26.1678 -81.7221 246° West  Level FlightAware Approximate
11:32PM 26.1509 -81.7644 246° West  Level FlightAware Approximate